sensor_id;sensor_type;location;lat;lon;timestamp;temperature;humidity
2825;DHT22;1420;51.324;12.344;2023-09-30T00:00:56;16.50;99.90
2825;DHT22;1420;51.324;12.344;2023-09-30T00:03:23;16.50;99.90
2825;DHT22;1420;51.324;12.344;2023-09-30T00:05:50;16.50;99.90
2825;DHT22;1420;51.324;12.344;2023-09-30T00:08:17;16.50;99.90
2825;DHT22;1420;51.324;12.344;2023-09-30T00:10:45;16.40;99.90
2825;DHT22;1420;51.324;12.344;2023-09-30T00:13:13;16.40;99.90
2825;DHT22;1420;51.324;12.344;2023-09-30T00:15:41;16.40;99.90
2825;DHT22;1420;51.324;12.344;2023-09-30T00:18:09;16.40;99.90
2825;DHT22;1420;51.324;12.344;2023-09-30T00:20:37;16.30;99.90
2825;DHT22;1420;51.324;12.344;2023-09-30T00:23:05;16.30;99.90
2825;DHT22;1420;51.324;12.344;2023-09-30T00:25:33;16.20;99.90
2825;DHT22;1420;51.324;12.344;2023-09-30T00:28:00;16.20;99.90
2825;DHT22;1420;51.324;12.344;2023-09-30T00:30:27;16.20;99.90
2825;DHT22;1420;51.324;12.344;2023-09-30T00:32:55;16.20;99.90
2825;DHT22;1420;51.324;12.344;2023-09-30T00:35:22;16.10;99.90
2825;DHT22;1420;51.324;12.344;2023-09-30T00:37:50;16.10;99.90
2825;DHT22;1420;51.324;12.344;2023-09-30T00:40:17;16.00;99.90
2825;DHT22;1420;51.324;12.344;2023-09-30T00:42:44;16.00;99.90
2825;DHT22;1420;51.324;12.344;2023-09-30T00:45:11;16.00;99.90
2825;DHT22;1420;51.324;12.344;2023-09-30T00:47:39;16.20;99.90
2825;DHT22;1420;51.324;12.344;2023-09-30T00:50:06;16.20;99.90
2825;DHT22;1420;51.324;12.344;2023-09-30T00:52:34;16.30;99.90
2825;DHT22;1420;51.324;12.344;2023-09-30T00:55:02;16.30;99.90
2825;DHT22;1420;51.324;12.344;2023-09-30T00:57:29;16.30;99.90
2825;DHT22;1420;51.324;12.344;2023-09-30T00:59:58;16.30;99.90
2825;DHT22;1420;51.324;12.344;2023-09-30T01:02:25;16.30;99.90
2825;DHT22;1420;51.324;12.344;2023-09-30T01:04:52;16.10;99.90
2825;DHT22;1420;51.324;12.344;2023-09-30T01:07:19;16.30;99.90
2825;DHT22;1420;51.324;12.344;2023-09-30T01:09:46;16.40;99.90
2825;DHT22;1420;51.324;12.344;2023-09-30T01:12:13;16.20;99.90
2825;DHT22;1420;51.324;12.344;2023-09-30T01:14:41;16.10;99.90
2825;DHT22;1420;51.324;12.344;2023-09-30T01:17:08;16.10;99.90
2825;DHT22;1420;51.324;12.344;2023-09-30T01:19:37;16.10;99.90
2825;DHT22;1420;51.324;12.344;2023-09-30T01:22:05;16.20;99.90
2825;DHT22;1420;51.324;12.344;2023-09-30T01:24:39;16.20;99.90
2825;DHT22;1420;51.324;12.344;2023-09-30T01:27:06;16.10;99.90
2825;DHT22;1420;51.324;12.344;2023-09-30T01:29:33;16.20;99.90
2825;DHT22;1420;51.324;12.344;2023-09-30T01:32:00;16.10;99.90
2825;DHT22;1420;51.324;12.344;2023-09-30T01:34:27;16.00;99.90
2825;DHT22;1420;51.324;12.344;2023-09-30T01:36:54;16.00;99.90
2825;DHT22;1420;51.324;12.344;2023-09-30T01:39:22;16.00;99.90
2825;DHT22;1420;51.324;12.344;2023-09-30T01:41:49;16.00;99.90
2825;DHT22;1420;51.324;12.344;2023-09-30T01:44:17;15.90;99.90
2825;DHT22;1420;51.324;12.344;2023-09-30T01:46:44;15.80;99.90
2825;DHT22;1420;51.324;12.344;2023-09-30T01:49:11;15.80;99.90
2825;DHT22;1420;51.324;12.344;2023-09-30T01:51:38;15.90;99.90
2825;DHT22;1420;51.324;12.344;2023-09-30T01:54:05;15.50;99.90
2825;DHT22;1420;51.324;12.344;2023-09-30T01:56:33;15.60;99.90
2825;DHT22;1420;51.324;12.344;2023-09-30T01:59:00;15.50;99.90
2825;DHT22;1420;51.324;12.344;2023-09-30T02:01:27;15.40;99.90
2825;DHT22;1420;51.324;12.344;2023-09-30T02:03:54;15.40;99.90
2825;DHT22;1420;51.324;12.344;2023-09-30T02:06:21;15.20;99.90
2825;DHT22;1420;51.324;12.344;2023-09-30T02:08:49;15.20;99.90
2825;DHT22;1420;51.324;12.344;2023-09-30T02:11:16;15.20;99.90
2825;DHT22;1420;51.324;12.344;2023-09-30T02:13:43;15.00;99.90
2825;DHT22;1420;51.324;12.344;2023-09-30T02:16:12;15.30;99.90
2825;DHT22;1420;51.324;12.344;2023-09-30T02:18:38;15.30;99.90
2825;DHT22;1420;51.324;12.344;2023-09-30T02:21:07;15.10;99.90
2825;DHT22;1420;51.324;12.344;2023-09-30T02:23:34;15.00;99.90
2825;DHT22;1420;51.324;12.344;2023-09-30T02:26:02;15.10;99.90
2825;DHT22;1420;51.324;12.344;2023-09-30T02:28:29;15.00;99.90
2825;DHT22;1420;51.324;12.344;2023-09-30T02:30:59;15.00;99.90
2825;DHT22;1420;51.324;12.344;2023-09-30T02:33:25;15.10;99.90
2825;DHT22;1420;51.324;12.344;2023-09-30T02:35:52;14.90;99.90
2825;DHT22;1420;51.324;12.344;2023-09-30T02:38:20;14.90;99.90
2825;DHT22;1420;51.324;12.344;2023-09-30T02:40:47;15.00;99.90
2825;DHT22;1420;51.324;12.344;2023-09-30T02:43:14;15.10;99.90
2825;DHT22;1420;51.324;12.344;2023-09-30T02:45:41;15.00;99.90
2825;DHT22;1420;51.324;12.344;2023-09-30T02:48:09;15.00;99.90
2825;DHT22;1420;51.324;12.344;2023-09-30T02:50:37;14.90;99.90
2825;DHT22;1420;51.324;12.344;2023-09-30T02:53:05;14.90;99.90
2825;DHT22;1420;51.324;12.344;2023-09-30T02:55:33;15.00;99.90
2825;DHT22;1420;51.324;12.344;2023-09-30T02:58:01;14.90;99.90
2825;DHT22;1420;51.324;12.344;2023-09-30T03:00:29;14.80;99.90
2825;DHT22;1420;51.324;12.344;2023-09-30T03:02:57;14.90;99.90
2825;DHT22;1420;51.324;12.344;2023-09-30T03:05:24;14.90;99.90
2825;DHT22;1420;51.324;12.344;2023-09-30T03:07:51;15.10;99.90
2825;DHT22;1420;51.324;12.344;2023-09-30T03:10:19;15.10;99.90
2825;DHT22;1420;51.324;12.344;2023-09-30T03:12:47;14.90;99.90
2825;DHT22;1420;51.324;12.344;2023-09-30T03:15:15;14.90;99.90
2825;DHT22;1420;51.324;12.344;2023-09-30T03:17:43;14.80;99.90
2825;DHT22;1420;51.324;12.344;2023-09-30T03:20:10;14.80;99.90
2825;DHT22;1420;51.324;12.344;2023-09-30T03:22:38;14.80;99.90
2825;DHT22;1420;51.324;12.344;2023-09-30T03:25:06;14.60;99.90
2825;DHT22;1420;51.324;12.344;2023-09-30T03:27:34;14.50;99.90
2825;DHT22;1420;51.324;12.344;2023-09-30T03:30:02;14.40;99.90
2825;DHT22;1420;51.324;12.344;2023-09-30T03:32:28;14.30;99.90
2825;DHT22;1420;51.324;12.344;2023-09-30T03:34:55;14.20;99.90
2825;DHT22;1420;51.324;12.344;2023-09-30T03:37:23;14.20;99.90
2825;DHT22;1420;51.324;12.344;2023-09-30T03:39:50;14.10;99.90
2825;DHT22;1420;51.324;12.344;2023-09-30T03:42:17;14.20;99.90
2825;DHT22;1420;51.324;12.344;2023-09-30T03:44:44;14.10;99.90
2825;DHT22;1420;51.324;12.344;2023-09-30T03:47:11;14.00;99.90
2825;DHT22;1420;51.324;12.344;2023-09-30T03:49:39;14.10;99.90
2825;DHT22;1420;51.324;12.344;2023-09-30T03:52:07;14.10;99.90
2825;DHT22;1420;51.324;12.344;2023-09-30T03:54:35;13.90;99.90
2825;DHT22;1420;51.324;12.344;2023-09-30T03:57:03;13.90;99.90
2825;DHT22;1420;51.324;12.344;2023-09-30T03:59:30;13.90;99.90
2825;DHT22;1420;51.324;12.344;2023-09-30T04:01:58;14.00;99.90
2825;DHT22;1420;51.324;12.344;2023-09-30T04:04:26;13.90;99.90
2825;DHT22;1420;51.324;12.344;2023-09-30T04:06:54;14.00;99.90
2825;DHT22;1420;51.324;12.344;2023-09-30T04:09:22;13.70;99.90
2825;DHT22;1420;51.324;12.344;2023-09-30T04:11:49;13.70;99.90
2825;DHT22;1420;51.324;12.344;2023-09-30T04:14:16;13.90;99.90
2825;DHT22;1420;51.324;12.344;2023-09-30T04:16:44;13.70;99.90
2825;DHT22;1420;51.324;12.344;2023-09-30T04:19:12;13.70;99.90
2825;DHT22;1420;51.324;12.344;2023-09-30T04:21:40;13.60;99.90
2825;DHT22;1420;51.324;12.344;2023-09-30T04:24:08;13.70;99.90
2825;DHT22;1420;51.324;12.344;2023-09-30T04:26:36;13.80;99.90
2825;DHT22;1420;51.324;12.344;2023-09-30T04:29:04;13.70;99.90
2825;DHT22;1420;51.324;12.344;2023-09-30T04:31:32;13.70;99.90
2825;DHT22;1420;51.324;12.344;2023-09-30T04:34:00;13.50;99.90
2825;DHT22;1420;51.324;12.344;2023-09-30T04:36:27;13.40;99.90
2825;DHT22;1420;51.324;12.344;2023-09-30T04:38:55;13.50;99.90
2825;DHT22;1420;51.324;12.344;2023-09-30T04:41:22;13.50;99.90
2825;DHT22;1420;51.324;12.344;2023-09-30T04:43:49;13.50;99.90
2825;DHT22;1420;51.324;12.344;2023-09-30T04:46:17;13.40;99.90
2825;DHT22;1420;51.324;12.344;2023-09-30T04:48:45;13.40;99.90
2825;DHT22;1420;51.324;12.344;2023-09-30T04:51:13;13.40;99.90
2825;DHT22;1420;51.324;12.344;2023-09-30T04:53:41;13.30;99.90
2825;DHT22;1420;51.324;12.344;2023-09-30T04:56:09;13.30;99.90
2825;DHT22;1420;51.324;12.344;2023-09-30T04:58:37;13.20;99.90
2825;DHT22;1420;51.324;12.344;2023-09-30T05:01:05;13.10;99.90
2825;DHT22;1420;51.324;12.344;2023-09-30T05:03:33;13.20;99.90
2825;DHT22;1420;51.324;12.344;2023-09-30T05:06:01;13.10;99.90
2825;DHT22;1420;51.324;12.344;2023-09-30T05:08:29;13.30;99.90
2825;DHT22;1420;51.324;12.344;2023-09-30T05:10:56;13.20;99.90
2825;DHT22;1420;51.324;12.344;2023-09-30T05:13:23;13.40;99.90
2825;DHT22;1420;51.324;12.344;2023-09-30T05:15:52;13.30;99.90
2825;DHT22;1420;51.324;12.344;2023-09-30T05:18:19;13.20;99.90
2825;DHT22;1420;51.324;12.344;2023-09-30T05:20:46;13.40;99.90
2825;DHT22;1420;51.324;12.344;2023-09-30T05:23:13;13.50;99.90
2825;DHT22;1420;51.324;12.344;2023-09-30T05:25:41;13.60;99.90
2825;DHT22;1420;51.324;12.344;2023-09-30T05:28:09;13.60;99.90
2825;DHT22;1420;51.324;12.344;2023-09-30T05:30:36;13.50;99.90
2825;DHT22;1420;51.324;12.344;2023-09-30T05:33:03;13.50;99.90
2825;DHT22;1420;51.324;12.344;2023-09-30T05:35:30;13.70;99.90
2825;DHT22;1420;51.324;12.344;2023-09-30T05:37:58;13.80;99.90
2825;DHT22;1420;51.324;12.344;2023-09-30T05:40:25;13.70;99.90
2825;DHT22;1420;51.324;12.344;2023-09-30T05:42:53;13.80;99.90
2825;DHT22;1420;51.324;12.344;2023-09-30T05:45:19;13.80;99.90
2825;DHT22;1420;51.324;12.344;2023-09-30T05:47:47;13.90;99.90
2825;DHT22;1420;51.324;12.344;2023-09-30T05:50:14;13.70;99.90
2825;DHT22;1420;51.324;12.344;2023-09-30T05:52:43;13.80;99.90
2825;DHT22;1420;51.324;12.344;2023-09-30T05:55:10;13.70;99.90
2825;DHT22;1420;51.324;12.344;2023-09-30T05:57:38;13.70;99.90
2825;DHT22;1420;51.324;12.344;2023-09-30T06:00:07;13.60;99.90
2825;DHT22;1420;51.324;12.344;2023-09-30T06:02:37;13.50;99.90
2825;DHT22;1420;51.324;12.344;2023-09-30T06:05:05;13.40;99.90
2825;DHT22;1420;51.324;12.344;2023-09-30T06:07:32;13.30;99.90
2825;DHT22;1420;51.324;12.344;2023-09-30T06:10:00;13.50;99.90
2825;DHT22;1420;51.324;12.344;2023-09-30T06:12:27;13.30;99.90
2825;DHT22;1420;51.324;12.344;2023-09-30T06:14:54;13.50;99.90
2825;DHT22;1420;51.324;12.344;2023-09-30T06:17:21;13.40;99.90
2825;DHT22;1420;51.324;12.344;2023-09-30T06:19:48;13.80;99.90
2825;DHT22;1420;51.324;12.344;2023-09-30T06:22:16;14.10;99.90
2825;DHT22;1420;51.324;12.344;2023-09-30T06:24:44;14.70;99.90
2825;DHT22;1420;51.324;12.344;2023-09-30T06:27:12;15.20;99.90
2825;DHT22;1420;51.324;12.344;2023-09-30T06:29:40;15.80;99.90
2825;DHT22;1420;51.324;12.344;2023-09-30T06:32:07;15.70;99.90
2825;DHT22;1420;51.324;12.344;2023-09-30T06:34:34;16.10;99.90
2825;DHT22;1420;51.324;12.344;2023-09-30T06:37:02;15.80;99.90
2825;DHT22;1420;51.324;12.344;2023-09-30T06:39:29;15.60;99.90
2825;DHT22;1420;51.324;12.344;2023-09-30T06:41:56;15.40;99.90
2825;DHT22;1420;51.324;12.344;2023-09-30T06:44:23;15.30;99.90
2825;DHT22;1420;51.324;12.344;2023-09-30T06:46:51;15.20;99.90
2825;DHT22;1420;51.324;12.344;2023-09-30T06:49:18;15.30;99.90
2825;DHT22;1420;51.324;12.344;2023-09-30T06:51:45;15.60;99.90
2825;DHT22;1420;51.324;12.344;2023-09-30T06:54:12;15.70;99.90
2825;DHT22;1420;51.324;12.344;2023-09-30T06:56:39;16.00;99.90
2825;DHT22;1420;51.324;12.344;2023-09-30T06:59:07;15.90;99.90
2825;DHT22;1420;51.324;12.344;2023-09-30T07:01:34;15.80;99.90
2825;DHT22;1420;51.324;12.344;2023-09-30T07:04:01;15.60;99.90
2825;DHT22;1420;51.324;12.344;2023-09-30T07:06:29;15.50;99.90
2825;DHT22;1420;51.324;12.344;2023-09-30T07:08:56;15.40;99.90
2825;DHT22;1420;51.324;12.344;2023-09-30T07:11:28;15.60;99.90
2825;DHT22;1420;51.324;12.344;2023-09-30T07:13:55;15.70;99.90
2825;DHT22;1420;51.324;12.344;2023-09-30T07:16:22;15.60;99.90
2825;DHT22;1420;51.324;12.344;2023-09-30T07:18:49;15.60;99.90
2825;DHT22;1420;51.324;12.344;2023-09-30T07:21:17;15.70;99.90
2825;DHT22;1420;51.324;12.344;2023-09-30T07:23:44;15.80;99.90
2825;DHT22;1420;51.324;12.344;2023-09-30T07:26:11;15.50;99.90
2825;DHT22;1420;51.324;12.344;2023-09-30T07:28:39;15.40;99.90
2825;DHT22;1420;51.324;12.344;2023-09-30T07:31:09;15.40;99.90
2825;DHT22;1420;51.324;12.344;2023-09-30T07:33:37;15.50;99.90
2825;DHT22;1420;51.324;12.344;2023-09-30T07:36:04;15.80;99.90
2825;DHT22;1420;51.324;12.344;2023-09-30T07:38:31;15.80;99.90
2825;DHT22;1420;51.324;12.344;2023-09-30T07:41:00;15.50;99.90
2825;DHT22;1420;51.324;12.344;2023-09-30T07:43:27;15.70;99.90
2825;DHT22;1420;51.324;12.344;2023-09-30T07:45:53;15.90;99.90
2825;DHT22;1420;51.324;12.344;2023-09-30T07:48:20;16.00;99.90
2825;DHT22;1420;51.324;12.344;2023-09-30T07:50:47;16.20;99.90
2825;DHT22;1420;51.324;12.344;2023-09-30T07:53:15;16.90;99.90
2825;DHT22;1420;51.324;12.344;2023-09-30T07:55:42;17.30;99.90
2825;DHT22;1420;51.324;12.344;2023-09-30T07:58:09;17.00;99.90
2825;DHT22;1420;51.324;12.344;2023-09-30T08:00:36;17.10;99.90
2825;DHT22;1420;51.324;12.344;2023-09-30T08:03:03;17.20;99.90
2825;DHT22;1420;51.324;12.344;2023-09-30T08:05:32;17.00;99.90
2825;DHT22;1420;51.324;12.344;2023-09-30T08:08:01;17.20;99.90
2825;DHT22;1420;51.324;12.344;2023-09-30T08:10:27;17.10;99.90
2825;DHT22;1420;51.324;12.344;2023-09-30T08:12:54;16.70;99.90
2825;DHT22;1420;51.324;12.344;2023-09-30T08:15:22;16.60;99.90
2825;DHT22;1420;51.324;12.344;2023-09-30T08:17:49;16.60;99.90
2825;DHT22;1420;51.324;12.344;2023-09-30T08:20:16;16.60;99.90
2825;DHT22;1420;51.324;12.344;2023-09-30T08:22:44;16.80;99.90
2825;DHT22;1420;51.324;12.344;2023-09-30T08:25:13;17.10;99.90
2825;DHT22;1420;51.324;12.344;2023-09-30T08:27:40;17.50;99.90
2825;DHT22;1420;51.324;12.344;2023-09-30T08:30:08;18.30;99.90
2825;DHT22;1420;51.324;12.344;2023-09-30T08:32:35;18.30;99.90
2825;DHT22;1420;51.324;12.344;2023-09-30T08:35:03;18.70;99.90
2825;DHT22;1420;51.324;12.344;2023-09-30T08:37:30;18.50;99.90
2825;DHT22;1420;51.324;12.344;2023-09-30T08:39:58;18.90;99.90
2825;DHT22;1420;51.324;12.344;2023-09-30T08:42:25;18.80;99.90
2825;DHT22;1420;51.324;12.344;2023-09-30T08:44:53;18.90;99.90
2825;DHT22;1420;51.324;12.344;2023-09-30T08:47:22;19.30;99.90
2825;DHT22;1420;51.324;12.344;2023-09-30T08:49:49;19.30;99.90
2825;DHT22;1420;51.324;12.344;2023-09-30T08:52:16;19.10;99.90
2825;DHT22;1420;51.324;12.344;2023-09-30T08:54:44;19.40;99.90
2825;DHT22;1420;51.324;12.344;2023-09-30T08:57:12;19.50;99.50
2825;DHT22;1420;51.324;12.344;2023-09-30T08:59:40;19.50;99.20
2825;DHT22;1420;51.324;12.344;2023-09-30T09:02:09;19.50;99.20
2825;DHT22;1420;51.324;12.344;2023-09-30T09:04:36;19.70;98.90
2825;DHT22;1420;51.324;12.344;2023-09-30T09:07:03;19.20;99.90
2825;DHT22;1420;51.324;12.344;2023-09-30T09:09:30;19.20;99.90
2825;DHT22;1420;51.324;12.344;2023-09-30T09:11:58;19.30;99.90
2825;DHT22;1420;51.324;12.344;2023-09-30T09:17:06;19.60;97.40
2825;DHT22;1420;51.324;12.344;2023-09-30T09:19:31;19.70;99.70
2825;DHT22;1420;51.324;12.344;2023-09-30T09:21:59;20.10;96.70
2825;DHT22;1420;51.324;12.344;2023-09-30T09:24:31;19.70;97.10
2825;DHT22;1420;51.324;12.344;2023-09-30T09:27:06;19.40;96.90
2825;DHT22;1420;51.324;12.344;2023-09-30T09:29:34;19.20;96.00
2825;DHT22;1420;51.324;12.344;2023-09-30T09:32:10;18.70;99.50
2825;DHT22;1420;51.324;12.344;2023-09-30T09:34:37;18.60;99.50
2825;DHT22;1420;51.324;12.344;2023-09-30T09:39:38;19.20;99.90
2825;DHT22;1420;51.324;12.344;2023-09-30T09:42:05;19.40;96.70
2825;DHT22;1420;51.324;12.344;2023-09-30T09:44:33;20.00;95.20
2825;DHT22;1420;51.324;12.344;2023-09-30T09:47:00;20.00;95.10
2825;DHT22;1420;51.324;12.344;2023-09-30T09:49:27;19.90;94.30
2825;DHT22;1420;51.324;12.344;2023-09-30T09:51:55;19.50;94.70
2825;DHT22;1420;51.324;12.344;2023-09-30T09:54:23;19.50;94.80
2825;DHT22;1420;51.324;12.344;2023-09-30T09:56:50;19.70;93.70
2825;DHT22;1420;51.324;12.344;2023-09-30T09:59:17;19.70;92.30
2825;DHT22;1420;51.324;12.344;2023-09-30T10:01:45;20.10;92.80
2825;DHT22;1420;51.324;12.344;2023-09-30T10:04:12;20.60;88.30
2825;DHT22;1420;51.324;12.344;2023-09-30T10:06:39;20.60;84.90
2825;DHT22;1420;51.324;12.344;2023-09-30T10:09:07;20.10;87.10
2825;DHT22;1420;51.324;12.344;2023-09-30T10:11:33;20.00;85.40
2825;DHT22;1420;51.324;12.344;2023-09-30T10:14:02;20.60;86.60
2825;DHT22;1420;51.324;12.344;2023-09-30T10:16:50;20.60;86.60
2825;DHT22;1420;51.324;12.344;2023-09-30T10:19:20;20.40;88.10
2825;DHT22;1420;51.324;12.344;2023-09-30T10:24:35;20.90;77.90
2825;DHT22;1420;51.324;12.344;2023-09-30T10:29:42;21.30;73.60
2825;DHT22;1420;51.324;12.344;2023-09-30T10:32:09;21.20;76.50
2825;DHT22;1420;51.324;12.344;2023-09-30T10:34:36;20.90;75.00
2825;DHT22;1420;51.324;12.344;2023-09-30T10:39:57;21.20;72.50
2825;DHT22;1420;51.324;12.344;2023-09-30T10:45:04;20.40;74.30
2825;DHT22;1420;51.324;12.344;2023-09-30T10:47:34;20.50;70.90
2825;DHT22;1420;51.324;12.344;2023-09-30T10:50:02;20.40;70.90
2825;DHT22;1420;51.324;12.344;2023-09-30T10:52:29;20.50;71.60
2825;DHT22;1420;51.324;12.344;2023-09-30T10:55:02;21.10;67.50
2825;DHT22;1420;51.324;12.344;2023-09-30T10:57:29;21.00;67.40
2825;DHT22;1420;51.324;12.344;2023-09-30T11:00:09;20.80;64.80
2825;DHT22;1420;51.324;12.344;2023-09-30T11:02:39;20.70;64.80
2825;DHT22;1420;51.324;12.344;2023-09-30T11:05:09;20.70;64.40
2825;DHT22;1420;51.324;12.344;2023-09-30T11:07:36;20.90;69.00
2825;DHT22;1420;51.324;12.344;2023-09-30T11:10:03;20.90;68.80
2825;DHT22;1420;51.324;12.344;2023-09-30T11:12:30;21.10;69.40
2825;DHT22;1420;51.324;12.344;2023-09-30T11:14:59;21.00;66.80
2825;DHT22;1420;51.324;12.344;2023-09-30T11:17:26;21.20;64.80
2825;DHT22;1420;51.324;12.344;2023-09-30T11:19:53;20.70;66.10
2825;DHT22;1420;51.324;12.344;2023-09-30T11:22:20;20.50;67.00
2825;DHT22;1420;51.324;12.344;2023-09-30T11:24:47;21.00;68.40
2825;DHT22;1420;51.324;12.344;2023-09-30T11:27:22;21.30;65.00
2825;DHT22;1420;51.324;12.344;2023-09-30T11:29:50;20.50;63.40
2825;DHT22;1420;51.324;12.344;2023-09-30T11:32:25;20.40;63.20
2825;DHT22;1420;51.324;12.344;2023-09-30T11:34:53;20.40;64.10
2825;DHT22;1420;51.324;12.344;2023-09-30T11:37:20;20.40;60.10
2825;DHT22;1420;51.324;12.344;2023-09-30T11:39:48;20.20;63.20
2825;DHT22;1420;51.324;12.344;2023-09-30T11:42:16;20.10;63.20
2825;DHT22;1420;51.324;12.344;2023-09-30T11:44:45;20.00;63.00
2825;DHT22;1420;51.324;12.344;2023-09-30T11:47:13;20.30;65.10
2825;DHT22;1420;51.324;12.344;2023-09-30T11:49:40;20.80;64.80
2825;DHT22;1420;51.324;12.344;2023-09-30T11:52:08;20.60;66.30
2825;DHT22;1420;51.324;12.344;2023-09-30T11:54:38;20.40;61.00
2825;DHT22;1420;51.324;12.344;2023-09-30T11:57:04;20.40;61.10
2825;DHT22;1420;51.324;12.344;2023-09-30T11:59:31;20.30;60.90
2825;DHT22;1420;51.324;12.344;2023-09-30T12:01:58;20.20;61.50
2825;DHT22;1420;51.324;12.344;2023-09-30T12:04:26;20.40;70.70
2825;DHT22;1420;51.324;12.344;2023-09-30T12:06:53;20.40;61.80
2825;DHT22;1420;51.324;12.344;2023-09-30T12:09:20;20.30;62.60
2825;DHT22;1420;51.324;12.344;2023-09-30T12:11:49;20.40;59.30
2825;DHT22;1420;51.324;12.344;2023-09-30T12:14:16;20.50;61.50
2825;DHT22;1420;51.324;12.344;2023-09-30T12:16:44;20.60;66.20
2825;DHT22;1420;51.324;12.344;2023-09-30T12:19:12;20.40;61.50
2825;DHT22;1420;51.324;12.344;2023-09-30T12:21:40;20.40;63.60
2825;DHT22;1420;51.324;12.344;2023-09-30T12:24:07;20.30;63.10
2825;DHT22;1420;51.324;12.344;2023-09-30T12:26:35;20.20;61.10
2825;DHT22;1420;51.324;12.344;2023-09-30T12:29:02;20.10;64.40
2825;DHT22;1420;51.324;12.344;2023-09-30T12:31:29;20.40;61.90
2825;DHT22;1420;51.324;12.344;2023-09-30T12:33:56;20.30;62.30
2825;DHT22;1420;51.324;12.344;2023-09-30T12:36:24;20.30;64.90
2825;DHT22;1420;51.324;12.344;2023-09-30T12:38:52;20.30;61.10
2825;DHT22;1420;51.324;12.344;2023-09-30T12:41:19;20.30;61.00
2825;DHT22;1420;51.324;12.344;2023-09-30T12:43:47;20.50;59.10
2825;DHT22;1420;51.324;12.344;2023-09-30T12:46:15;20.40;59.00
2825;DHT22;1420;51.324;12.344;2023-09-30T12:48:42;20.30;59.70
2825;DHT22;1420;51.324;12.344;2023-09-30T12:51:10;20.00;60.00
2825;DHT22;1420;51.324;12.344;2023-09-30T12:53:37;20.00;59.90
2825;DHT22;1420;51.324;12.344;2023-09-30T12:56:04;20.10;68.20
2825;DHT22;1420;51.324;12.344;2023-09-30T12:58:32;19.90;65.00
2825;DHT22;1420;51.324;12.344;2023-09-30T13:01:00;20.00;63.10
2825;DHT22;1420;51.324;12.344;2023-09-30T13:03:28;19.60;61.70
2825;DHT22;1420;51.324;12.344;2023-09-30T13:05:56;19.60;62.40
2825;DHT22;1420;51.324;12.344;2023-09-30T13:08:23;19.60;61.60
2825;DHT22;1420;51.324;12.344;2023-09-30T13:10:51;19.70;61.30
2825;DHT22;1420;51.324;12.344;2023-09-30T13:13:18;19.70;64.70
2825;DHT22;1420;51.324;12.344;2023-09-30T13:15:46;19.70;64.20
2825;DHT22;1420;51.324;12.344;2023-09-30T13:18:13;19.70;60.90
2825;DHT22;1420;51.324;12.344;2023-09-30T13:20:40;19.80;69.10
2825;DHT22;1420;51.324;12.344;2023-09-30T13:23:07;19.80;61.80
2825;DHT22;1420;51.324;12.344;2023-09-30T13:25:34;19.60;59.80
2825;DHT22;1420;51.324;12.344;2023-09-30T13:28:02;19.70;61.30
2825;DHT22;1420;51.324;12.344;2023-09-30T13:30:30;19.80;62.80
2825;DHT22;1420;51.324;12.344;2023-09-30T13:32:57;19.90;62.20
2825;DHT22;1420;51.324;12.344;2023-09-30T13:35:25;19.70;59.00
2825;DHT22;1420;51.324;12.344;2023-09-30T13:37:52;19.60;65.50
2825;DHT22;1420;51.324;12.344;2023-09-30T13:40:19;19.60;61.60
2825;DHT22;1420;51.324;12.344;2023-09-30T13:42:46;19.80;61.10
2825;DHT22;1420;51.324;12.344;2023-09-30T13:45:13;19.50;60.70
2825;DHT22;1420;51.324;12.344;2023-09-30T13:47:41;19.60;60.90
2825;DHT22;1420;51.324;12.344;2023-09-30T13:50:08;19.80;67.70
2825;DHT22;1420;51.324;12.344;2023-09-30T13:52:35;19.60;63.30
2825;DHT22;1420;51.324;12.344;2023-09-30T13:55:02;19.70;60.40
2825;DHT22;1420;51.324;12.344;2023-09-30T13:57:30;19.70;63.70
2825;DHT22;1420;51.324;12.344;2023-09-30T13:59:58;19.80;59.70
2825;DHT22;1420;51.324;12.344;2023-09-30T14:02:25;19.80;59.60
2825;DHT22;1420;51.324;12.344;2023-09-30T14:04:52;19.60;62.40
2825;DHT22;1420;51.324;12.344;2023-09-30T14:07:19;19.70;60.90
2825;DHT22;1420;51.324;12.344;2023-09-30T14:09:46;19.50;59.60
2825;DHT22;1420;51.324;12.344;2023-09-30T14:12:14;19.50;59.60
2825;DHT22;1420;51.324;12.344;2023-09-30T14:14:41;19.50;61.20
2825;DHT22;1420;51.324;12.344;2023-09-30T14:17:08;19.70;60.80
2825;DHT22;1420;51.324;12.344;2023-09-30T14:19:36;19.60;58.10
2825;DHT22;1420;51.324;12.344;2023-09-30T14:22:03;19.70;57.60
2825;DHT22;1420;51.324;12.344;2023-09-30T14:24:31;19.70;58.60
2825;DHT22;1420;51.324;12.344;2023-09-30T14:26:58;19.80;66.90
2825;DHT22;1420;51.324;12.344;2023-09-30T14:29:25;19.80;60.00
2825;DHT22;1420;51.324;12.344;2023-09-30T14:31:52;19.60;58.90
2825;DHT22;1420;51.324;12.344;2023-09-30T14:34:19;19.40;58.60
2825;DHT22;1420;51.324;12.344;2023-09-30T14:36:46;19.50;58.50
2825;DHT22;1420;51.324;12.344;2023-09-30T14:39:14;19.50;59.60
2825;DHT22;1420;51.324;12.344;2023-09-30T14:41:42;19.50;59.30
2825;DHT22;1420;51.324;12.344;2023-09-30T14:44:08;19.40;58.20
2825;DHT22;1420;51.324;12.344;2023-09-30T14:46:35;19.30;59.00
2825;DHT22;1420;51.324;12.344;2023-09-30T14:49:02;19.30;60.50
2825;DHT22;1420;51.324;12.344;2023-09-30T14:51:30;19.20;59.00
2825;DHT22;1420;51.324;12.344;2023-09-30T14:53:57;19.40;60.90
2825;DHT22;1420;51.324;12.344;2023-09-30T14:56:25;19.30;60.30
2825;DHT22;1420;51.324;12.344;2023-09-30T14:58:52;19.40;65.10
2825;DHT22;1420;51.324;12.344;2023-09-30T15:01:20;19.30;58.60
2825;DHT22;1420;51.324;12.344;2023-09-30T15:03:47;19.30;58.20
2825;DHT22;1420;51.324;12.344;2023-09-30T15:06:14;19.20;58.40
2825;DHT22;1420;51.324;12.344;2023-09-30T15:08:41;19.10;58.10
2825;DHT22;1420;51.324;12.344;2023-09-30T15:11:15;19.00;61.00
2825;DHT22;1420;51.324;12.344;2023-09-30T15:13:43;19.20;57.30
2825;DHT22;1420;51.324;12.344;2023-09-30T15:16:15;19.10;56.60
2825;DHT22;1420;51.324;12.344;2023-09-30T15:18:41;19.10;57.00
2825;DHT22;1420;51.324;12.344;2023-09-30T15:21:08;19.00;57.40
2825;DHT22;1420;51.324;12.344;2023-09-30T15:23:36;19.00;63.60
2825;DHT22;1420;51.324;12.344;2023-09-30T15:26:03;19.00;62.20
2825;DHT22;1420;51.324;12.344;2023-09-30T15:28:30;19.00;59.20
2825;DHT22;1420;51.324;12.344;2023-09-30T15:30:58;19.00;59.60
2825;DHT22;1420;51.324;12.344;2023-09-30T15:33:27;18.80;60.00
2825;DHT22;1420;51.324;12.344;2023-09-30T15:35:54;18.70;60.00
2825;DHT22;1420;51.324;12.344;2023-09-30T15:38:21;18.60;59.90
2825;DHT22;1420;51.324;12.344;2023-09-30T15:40:53;18.60;59.90
2825;DHT22;1420;51.324;12.344;2023-09-30T15:43:20;18.70;59.40
2825;DHT22;1420;51.324;12.344;2023-09-30T15:45:46;18.60;61.20
2825;DHT22;1420;51.324;12.344;2023-09-30T15:48:14;18.60;62.00
2825;DHT22;1420;51.324;12.344;2023-09-30T15:50:41;18.90;61.60
2825;DHT22;1420;51.324;12.344;2023-09-30T15:53:08;18.80;68.10
2825;DHT22;1420;51.324;12.344;2023-09-30T15:55:35;18.70;61.30
2825;DHT22;1420;51.324;12.344;2023-09-30T15:58:03;18.50;60.40
2825;DHT22;1420;51.324;12.344;2023-09-30T16:00:30;18.70;62.30
2825;DHT22;1420;51.324;12.344;2023-09-30T16:02:57;18.50;61.90